Huvudsida
METAR-TAF:

METAR-TAF

Flygplatser :

Pittsburgh International Airport

Pittsburgh, Pennsylvania, USA

latitud: 40-30-14N, longitud: 080-15-59W, höjd: 366 m

Aktuellt väderrapport

Denna rapport gjordes för 14 minuter sedan, klockan 05:51 UTC
Vind 4 kt från väst/nordväst
Temperatur 14°C
Fuktighet 82%
Tryck 1023 hPa
Sikt: 16.1 km
Få moln på en höjd av 25000 ft

METAR: KPIT 240551Z 29004KT 10SM FEW250 14/11 A3020 RMK AO2 SLP231 T01390106 10228 20133 52009

Tid: 02:05 (06:05 UTC)

Väderprognos

Denna rapport gjordes för 45 minuter sedan, klockan 05:20 UTC
Prognos gäller från 24 kl. 06 UTC till 25 kl. 12 UTC
Vind 3 kt varierande vindriktning
Sikt: 10 km
Klar himmel

TAF: KPIT 240520Z 2406/2512 VRB03KT P6SM SKC

Aktuella väderrapporter och prognoser från 4000 flygplatser (METAR- och TAF-rapporter).

De tillgängliga stationerna syns som gula och röda prickar på kartan.

För musen över prickarna för att se namnen på stationerna.

Klicka sedan för att få väderrapporter och prognoser.

För att ändra kartan: Klicka på de gröna knapparna med ett svart kors på för att zooma in; den gröna knappen med ett streck på för att zooma ut; eller på de gröna pilarna för angränsande kartor.


METAR-TAF: